sensor_id;sensor_type;location;lat;lon;timestamp;pressure;altitude;pressure_sealevel;temperature;humidity
48517;BME280;34310;51.904;4.256;2022-12-05T00:01:32;101951.22;;;15.78;58.68
48517;BME280;34310;51.904;4.256;2022-12-05T00:04:07;101950.91;;;15.73;58.80
48517;BME280;34310;51.904;4.256;2022-12-05T00:06:37;101952.53;;;15.71;58.83
48517;BME280;34310;51.904;4.256;2022-12-05T00:09:05;101953.13;;;15.67;58.89
48517;BME280;34310;51.904;4.256;2022-12-05T00:11:37;101954.81;;;15.67;58.95
48517;BME280;34310;51.904;4.256;2022-12-05T00:14:05;101958.91;;;15.63;58.95
48517;BME280;34310;51.904;4.256;2022-12-05T00:16:36;101949.84;;;15.58;59.13
48517;BME280;34310;51.904;4.256;2022-12-05T00:19:06;101950.31;;;15.53;59.42
48517;BME280;34310;51.904;4.256;2022-12-05T00:21:35;101945.81;;;15.50;59.27
48517;BME280;34310;51.904;4.256;2022-12-05T00:24:04;101952.50;;;15.46;59.48
48517;BME280;34310;51.904;4.256;2022-12-05T00:26:33;101950.81;;;15.47;59.42
48517;BME280;34310;51.904;4.256;2022-12-05T00:29:00;101954.09;;;15.44;59.42
48517;BME280;34310;51.904;4.256;2022-12-05T00:31:28;101956.50;;;15.41;59.67
48517;BME280;34310;51.904;4.256;2022-12-05T00:33:58;101954.50;;;15.37;59.55
48517;BME280;34310;51.904;4.256;2022-12-05T00:36:28;101956.88;;;15.34;59.74
48517;BME280;34310;51.904;4.256;2022-12-05T00:38:57;101959.13;;;15.30;59.96
48517;BME280;34310;51.904;4.256;2022-12-05T00:41:27;101954.63;;;15.27;60.06
48517;BME280;34310;51.904;4.256;2022-12-05T00:43:56;101967.75;;;15.29;59.97
48517;BME280;34310;51.904;4.256;2022-12-05T00:46:26;101961.22;;;15.22;59.98
48517;BME280;34310;51.904;4.256;2022-12-05T00:48:55;101959.19;;;15.18;60.27
48517;BME280;34310;51.904;4.256;2022-12-05T00:51:31;101948.56;;;15.15;60.18
48517;BME280;34310;51.904;4.256;2022-12-05T00:54:02;101952.19;;;15.17;60.12
48517;BME280;34310;51.904;4.256;2022-12-05T00:56:30;101953.56;;;15.12;60.41
48517;BME280;34310;51.904;4.256;2022-12-05T00:58:59;101948.84;;;15.06;60.52
48517;BME280;34310;51.904;4.256;2022-12-05T01:01:32;101952.13;;;15.04;60.70
48517;BME280;34310;51.904;4.256;2022-12-05T01:04:05;101951.19;;;15.03;60.69
48517;BME280;34310;51.904;4.256;2022-12-05T01:06:33;101960.94;;;15.06;60.58
48517;BME280;34310;51.904;4.256;2022-12-05T01:09:00;101957.00;;;14.99;60.64
48517;BME280;34310;51.904;4.256;2022-12-05T01:11:28;101956.41;;;15.03;60.49
48517;BME280;34310;51.904;4.256;2022-12-05T01:13:56;101953.47;;;14.99;60.63
48517;BME280;34310;51.904;4.256;2022-12-05T01:16:30;101961.88;;;14.95;60.86
48517;BME280;34310;51.904;4.256;2022-12-05T01:18:58;101945.47;;;14.96;60.70
48517;BME280;34310;51.904;4.256;2022-12-05T01:21:26;101946.84;;;14.91;60.93
48517;BME280;34310;51.904;4.256;2022-12-05T01:23:54;101945.94;;;14.90;60.87
48517;BME280;34310;51.904;4.256;2022-12-05T01:26:22;101949.22;;;14.87;60.89
48517;BME280;34310;51.904;4.256;2022-12-05T01:28:50;101945.72;;;14.87;61.01
48517;BME280;34310;51.904;4.256;2022-12-05T01:31:26;101952.75;;;14.88;60.94
48517;BME280;34310;51.904;4.256;2022-12-05T01:33:56;101953.22;;;14.82;61.10
48517;BME280;34310;51.904;4.256;2022-12-05T01:36:24;101954.13;;;14.83;61.00
48517;BME280;34310;51.904;4.256;2022-12-05T01:38:52;101953.56;;;14.75;61.32
48517;BME280;34310;51.904;4.256;2022-12-05T01:41:26;101954.69;;;14.79;61.19
48517;BME280;34310;51.904;4.256;2022-12-05T01:46:35;101951.41;;;14.81;61.04
48517;BME280;34310;51.904;4.256;2022-12-05T01:49:08;101951.72;;;14.74;61.32
48517;BME280;34310;51.904;4.256;2022-12-05T01:51:38;101955.13;;;14.73;61.28
48517;BME280;34310;51.904;4.256;2022-12-05T01:54:07;101951.53;;;14.71;61.34
48517;BME280;34310;51.904;4.256;2022-12-05T01:56:36;101952.09;;;14.67;61.59
48517;BME280;34310;51.904;4.256;2022-12-05T01:59:05;101957.28;;;14.67;61.51
48517;BME280;34310;51.904;4.256;2022-12-05T02:01:34;101961.16;;;14.61;61.66
48517;BME280;34310;51.904;4.256;2022-12-05T02:04:02;101957.97;;;14.65;61.70
48517;BME280;34310;51.904;4.256;2022-12-05T02:06:31;101963.97;;;14.64;61.61
48517;BME280;34310;51.904;4.256;2022-12-05T02:08:59;101953.47;;;14.62;61.59
48517;BME280;34310;51.904;4.256;2022-12-05T02:11:29;101967.16;;;14.60;61.59
48517;BME280;34310;51.904;4.256;2022-12-05T02:22:31;101966.59;;;14.52;61.83
48517;BME280;34310;51.904;4.256;2022-12-05T02:30:52;101956.53;;;14.45;62.02
48517;BME280;34310;51.904;4.256;2022-12-05T02:33:34;101968.50;;;14.43;62.09
48517;BME280;34310;51.904;4.256;2022-12-05T02:39:05;101962.63;;;14.45;61.97
48517;BME280;34310;51.904;4.256;2022-12-05T02:41:51;101965.13;;;14.44;62.11
48517;BME280;34310;51.904;4.256;2022-12-05T02:44:22;101966.66;;;14.42;62.18
48517;BME280;34310;51.904;4.256;2022-12-05T02:46:53;101959.56;;;14.39;62.01
48517;BME280;34310;51.904;4.256;2022-12-05T02:49:25;101966.34;;;14.37;62.28
48517;BME280;34310;51.904;4.256;2022-12-05T02:51:57;101963.84;;;14.39;62.13
48517;BME280;34310;51.904;4.256;2022-12-05T02:54:32;101970.72;;;14.38;62.02
48517;BME280;34310;51.904;4.256;2022-12-05T02:57:02;101973.13;;;14.35;62.31
48517;BME280;34310;51.904;4.256;2022-12-05T02:59:30;101974.69;;;14.33;62.14
48517;BME280;34310;51.904;4.256;2022-12-05T03:01:57;101971.88;;;14.30;62.20
48517;BME280;34310;51.904;4.256;2022-12-05T03:04:26;101969.50;;;14.33;62.30
48517;BME280;34310;51.904;4.256;2022-12-05T03:06:58;101969.28;;;14.30;62.20
48517;BME280;34310;51.904;4.256;2022-12-05T03:09:46;101971.09;;;14.31;62.26
48517;BME280;34310;51.904;4.256;2022-12-05T03:12:25;101969.38;;;14.32;62.18
48517;BME280;34310;51.904;4.256;2022-12-05T03:15:08;101967.59;;;14.31;62.22
48517;BME280;34310;51.904;4.256;2022-12-05T03:17:59;101962.28;;;14.29;62.20
48517;BME280;34310;51.904;4.256;2022-12-05T03:20:40;101958.66;;;14.27;62.29
48517;BME280;34310;51.904;4.256;2022-12-05T03:23:18;101963.75;;;14.25;62.35
48517;BME280;34310;51.904;4.256;2022-12-05T03:26:09;101963.06;;;14.28;62.13
48517;BME280;34310;51.904;4.256;2022-12-05T03:31:43;101964.44;;;14.23;62.34
48517;BME280;34310;51.904;4.256;2022-12-05T03:34:33;101971.44;;;14.24;62.34
48517;BME280;34310;51.904;4.256;2022-12-05T03:37:08;101968.84;;;14.24;62.37
48517;BME280;34310;51.904;4.256;2022-12-05T03:39:38;101971.22;;;14.21;62.43
48517;BME280;34310;51.904;4.256;2022-12-05T03:42:18;101982.28;;;14.18;62.53
48517;BME280;34310;51.904;4.256;2022-12-05T03:44:53;101985.09;;;14.21;62.39
48517;BME280;34310;51.904;4.256;2022-12-05T03:47:25;101968.72;;;14.22;62.23
48517;BME280;34310;51.904;4.256;2022-12-05T03:50:00;101973.91;;;14.22;62.37
48517;BME280;34310;51.904;4.256;2022-12-05T03:52:38;101981.38;;;14.18;62.37
48517;BME280;34310;51.904;4.256;2022-12-05T03:55:29;101983.41;;;14.22;62.25
48517;BME280;34310;51.904;4.256;2022-12-05T03:58:04;101984.31;;;14.22;62.26
48517;BME280;34310;51.904;4.256;2022-12-05T04:00:36;101985.22;;;14.23;62.17
48517;BME280;34310;51.904;4.256;2022-12-05T04:03:19;101989.38;;;14.21;62.32
48517;BME280;34310;51.904;4.256;2022-12-05T04:06:00;101989.38;;;14.21;62.14
48517;BME280;34310;51.904;4.256;2022-12-05T04:08:38;101990.28;;;14.21;62.25
48517;BME280;34310;51.904;4.256;2022-12-05T04:11:13;101995.50;;;14.21;62.30
48517;BME280;34310;51.904;4.256;2022-12-05T04:14:07;101990.72;;;14.16;62.46
48517;BME280;34310;51.904;4.256;2022-12-05T04:16:45;102003.28;;;14.21;62.22
48517;BME280;34310;51.904;4.256;2022-12-05T04:19:54;101998.88;;;14.20;62.27
48517;BME280;34310;51.904;4.256;2022-12-05T04:22:41;101988.25;;;14.29;62.17
48517;BME280;34310;51.904;4.256;2022-12-05T04:25:13;101999.44;;;14.40;61.87
48517;BME280;34310;51.904;4.256;2022-12-05T04:28:14;101996.19;;;14.54;61.47
48517;BME280;34310;51.904;4.256;2022-12-05T04:36:46;102005.22;;;14.82;60.69
48517;BME280;34310;51.904;4.256;2022-12-05T04:41:54;101998.84;;;14.91;60.45
48517;BME280;34310;51.904;4.256;2022-12-05T04:44:27;101995.56;;;14.93;60.34
48517;BME280;34310;51.904;4.256;2022-12-05T04:46:57;101992.28;;;14.96;60.44
48517;BME280;34310;51.904;4.256;2022-12-05T04:49:28;101999.41;;;14.98;60.59
48517;BME280;34310;51.904;4.256;2022-12-05T04:52:03;101997.69;;;14.99;60.55
48517;BME280;34310;51.904;4.256;2022-12-05T04:54:58;101990.91;;;15.01;60.29
48517;BME280;34310;51.904;4.256;2022-12-05T04:57:44;101992.72;;;15.02;60.41
48517;BME280;34310;51.904;4.256;2022-12-05T05:00:14;101991.00;;;15.02;60.35
48517;BME280;34310;51.904;4.256;2022-12-05T05:02:54;101989.19;;;15.01;60.51
48517;BME280;34310;51.904;4.256;2022-12-05T05:05:25;101998.72;;;15.01;60.48
48517;BME280;34310;51.904;4.256;2022-12-05T05:07:55;101996.00;;;14.99;60.54
48517;BME280;34310;51.904;4.256;2022-12-05T05:10:32;101996.00;;;14.99;60.57
48517;BME280;34310;51.904;4.256;2022-12-05T05:13:01;101997.81;;;15.00;60.69
48517;BME280;34310;51.904;4.256;2022-12-05T05:15:28;101998.59;;;14.99;60.60
48517;BME280;34310;51.904;4.256;2022-12-05T05:17:55;102000.19;;;14.97;60.56
48517;BME280;34310;51.904;4.256;2022-12-05T05:20:23;102001.88;;;14.97;60.61
48517;BME280;34310;51.904;4.256;2022-12-05T05:22:57;102001.19;;;14.99;60.70
48517;BME280;34310;51.904;4.256;2022-12-05T05:25:25;102000.09;;;14.96;60.73
48517;BME280;34310;51.904;4.256;2022-12-05T05:27:54;101995.56;;;14.93;60.75
48517;BME280;34310;51.904;4.256;2022-12-05T05:30:23;101996.38;;;14.92;60.89
48517;BME280;34310;51.904;4.256;2022-12-05T05:32:51;102006.66;;;14.91;60.94
48517;BME280;34310;51.904;4.256;2022-12-05T05:35:19;102006.44;;;14.87;60.95
48517;BME280;34310;51.904;4.256;2022-12-05T05:37:47;102008.13;;;14.87;60.93
48517;BME280;34310;51.904;4.256;2022-12-05T05:40:14;102015.81;;;14.85;60.90
48517;BME280;34310;51.904;4.256;2022-12-05T05:42:46;102022.63;;;14.83;61.10
48517;BME280;34310;51.904;4.256;2022-12-05T05:45:14;102017.19;;;14.80;61.18
48517;BME280;34310;51.904;4.256;2022-12-05T05:47:42;102013.38;;;14.75;61.13
48517;BME280;34310;51.904;4.256;2022-12-05T05:50:10;102019.31;;;14.74;61.20
48517;BME280;34310;51.904;4.256;2022-12-05T05:52:45;102017.53;;;14.73;61.28
48517;BME280;34310;51.904;4.256;2022-12-05T05:55:13;102015.50;;;14.69;61.38
48517;BME280;34310;51.904;4.256;2022-12-05T05:57:40;102014.38;;;14.66;61.46
48517;BME280;34310;51.904;4.256;2022-12-05T06:00:09;102008.94;;;14.63;61.62
48517;BME280;34310;51.904;4.256;2022-12-05T06:02:36;102016.41;;;14.58;61.57
48517;BME280;34310;51.904;4.256;2022-12-05T06:05:04;102015.41;;;14.56;61.79
48517;BME280;34310;51.904;4.256;2022-12-05T06:07:32;102018.56;;;14.52;61.72
48517;BME280;34310;51.904;4.256;2022-12-05T06:10:00;102017.56;;;14.50;61.89
48517;BME280;34310;51.904;4.256;2022-12-05T06:12:27;102016.53;;;14.48;61.88
48517;BME280;34310;51.904;4.256;2022-12-05T06:14:55;102027.59;;;14.45;61.97
48517;BME280;34310;51.904;4.256;2022-12-05T06:17:22;102017.97;;;14.44;61.90
48517;BME280;34310;51.904;4.256;2022-12-05T06:19:49;102028.25;;;14.43;62.10
48517;BME280;34310;51.904;4.256;2022-12-05T06:22:16;102019.41;;;14.41;62.01
48517;BME280;34310;51.904;4.256;2022-12-05T06:24:44;102034.78;;;14.38;62.10
48517;BME280;34310;51.904;4.256;2022-12-05T06:27:11;102032.19;;;14.38;62.12
48517;BME280;34310;51.904;4.256;2022-12-05T06:29:38;102029.47;;;14.36;62.23
48517;BME280;34310;51.904;4.256;2022-12-05T06:32:06;102032.75;;;14.34;62.18
48517;BME280;34310;51.904;4.256;2022-12-05T06:34:33;102032.75;;;14.34;62.21
48517;BME280;34310;51.904;4.256;2022-12-05T06:37:01;102034.34;;;14.32;62.24
48517;BME280;34310;51.904;4.256;2022-12-05T06:39:29;102032.31;;;14.27;62.23
48517;BME280;34310;51.904;4.256;2022-12-05T06:41:56;102028.00;;;14.28;62.28
48517;BME280;34310;51.904;4.256;2022-12-05T06:44:23;102039.97;;;14.26;62.35
48517;BME280;34310;51.904;4.256;2022-12-05T06:46:54;102033.88;;;14.25;62.30
48517;BME280;34310;51.904;4.256;2022-12-05T06:49:22;102034.44;;;14.21;62.39
48517;BME280;34310;51.904;4.256;2022-12-05T06:51:59;102036.25;;;14.22;62.42
48517;BME280;34310;51.904;4.256;2022-12-05T06:54:26;102037.06;;;14.21;62.45
48517;BME280;34310;51.904;4.256;2022-12-05T06:56:53;102041.34;;;14.21;62.40
48517;BME280;34310;51.904;4.256;2022-12-05T06:59:21;102044.34;;;14.15;62.50
48517;BME280;34310;51.904;4.256;2022-12-05T07:01:48;102048.91;;;14.18;62.49
48517;BME280;34310;51.904;4.256;2022-12-05T07:04:19;102048.91;;;14.18;62.46
48517;BME280;34310;51.904;4.256;2022-12-05T07:06:48;102051.13;;;14.13;62.56
48517;BME280;34310;51.904;4.256;2022-12-05T07:09:19;102063.22;;;14.13;62.61
48517;BME280;34310;51.904;4.256;2022-12-05T07:11:50;102064.00;;;14.12;62.63
48517;BME280;34310;51.904;4.256;2022-12-05T07:14:18;102059.59;;;14.11;62.80
48517;BME280;34310;51.904;4.256;2022-12-05T07:17:05;102064.56;;;14.08;62.68
48517;BME280;34310;51.904;4.256;2022-12-05T07:19:33;102055.84;;;14.07;62.84
48517;BME280;34310;51.904;4.256;2022-12-05T07:22:00;102057.56;;;14.07;62.76
48517;BME280;34310;51.904;4.256;2022-12-05T07:24:27;102066.13;;;14.06;62.75
48517;BME280;34310;51.904;4.256;2022-12-05T07:26:55;102066.25;;;14.07;62.99
48517;BME280;34310;51.904;4.256;2022-12-05T07:29:23;102070.31;;;14.15;62.90
48517;BME280;34310;51.904;4.256;2022-12-05T07:31:50;102063.03;;;14.21;62.86
48517;BME280;34310;51.904;4.256;2022-12-05T07:34:19;102068.00;;;14.30;62.42
48517;BME280;34310;51.904;4.256;2022-12-05T07:36:46;102067.66;;;14.37;62.14
48517;BME280;34310;51.904;4.256;2022-12-05T07:39:14;102067.50;;;14.46;62.05
48517;BME280;34310;51.904;4.256;2022-12-05T07:41:42;102064.56;;;14.53;61.77
48517;BME280;34310;51.904;4.256;2022-12-05T07:44:11;102064.31;;;14.62;61.47
48517;BME280;34310;51.904;4.256;2022-12-05T07:46:39;102065.91;;;14.71;61.28
48517;BME280;34310;51.904;4.256;2022-12-05T07:49:07;102072.59;;;14.79;61.09
48517;BME280;34310;51.904;4.256;2022-12-05T07:51:34;102066.81;;;14.83;61.08
48517;BME280;34310;51.904;4.256;2022-12-05T07:54:02;102066.34;;;14.89;60.95
48517;BME280;34310;51.904;4.256;2022-12-05T07:56:29;102072.69;;;14.93;60.93
48517;BME280;34310;51.904;4.256;2022-12-05T07:58:57;102076.28;;;14.95;60.90
48517;BME280;34310;51.904;4.256;2022-12-05T08:01:25;102076.50;;;14.98;61.10
48517;BME280;34310;51.904;4.256;2022-12-05T08:03:55;102078.31;;;14.99;60.85
48517;BME280;34310;51.904;4.256;2022-12-05T08:06:28;102073.34;;;15.02;60.95
48517;BME280;34310;51.904;4.256;2022-12-05T08:08:56;102075.94;;;15.02;61.07
48517;BME280;34310;51.904;4.256;2022-12-05T08:11:29;102077.63;;;15.01;61.09
48517;BME280;34310;51.904;4.256;2022-12-05T08:13:57;102075.13;;;15.03;61.06
48517;BME280;34310;51.904;4.256;2022-12-05T08:16:26;102081.25;;;15.03;61.05
48517;BME280;34310;51.904;4.256;2022-12-05T08:19:02;102085.53;;;15.03;61.21
48517;BME280;34310;51.904;4.256;2022-12-05T08:21:30;102086.44;;;15.03;61.07
48517;BME280;34310;51.904;4.256;2022-12-05T08:23:58;102087.38;;;15.04;61.18
48517;BME280;34310;51.904;4.256;2022-12-05T08:26:29;102082.19;;;15.04;61.15
48517;BME280;34310;51.904;4.256;2022-12-05T08:29:06;102085.69;;;15.04;61.20
48517;BME280;34310;51.904;4.256;2022-12-05T08:31:38;102078.66;;;15.03;61.31
48517;BME280;34310;51.904;4.256;2022-12-05T08:34:06;102088.28;;;15.04;61.28
48517;BME280;34310;51.904;4.256;2022-12-05T08:36:33;102090.88;;;15.04;61.18
48517;BME280;34310;51.904;4.256;2022-12-05T08:39:03;102098.56;;;15.03;61.39
48517;BME280;34310;51.904;4.256;2022-12-05T08:41:31;102093.34;;;15.03;61.32
48517;BME280;34310;51.904;4.256;2022-12-05T08:44:02;102098.31;;;15.00;61.40
48517;BME280;34310;51.904;4.256;2022-12-05T08:46:32;102101.72;;;14.99;61.53
48517;BME280;34310;51.904;4.256;2022-12-05T08:49:00;102095.50;;;14.97;61.52
48517;BME280;34310;51.904;4.256;2022-12-05T08:51:28;102104.09;;;14.96;61.56
48517;BME280;34310;51.904;4.256;2022-12-05T08:53:55;102110.09;;;14.95;61.73
48517;BME280;34310;51.904;4.256;2022-12-05T08:56:23;102114.16;;;14.91;61.80
48517;BME280;34310;51.904;4.256;2022-12-05T08:58:54;102120.28;;;14.92;61.76
48517;BME280;34310;51.904;4.256;2022-12-05T09:01:31;102115.66;;;14.87;61.82
48517;BME280;34310;51.904;4.256;2022-12-05T09:04:00;102120.75;;;14.86;62.01
48517;BME280;34310;51.904;4.256;2022-12-05T09:06:28;102114.97;;;14.78;62.16
48517;BME280;34310;51.904;4.256;2022-12-05T09:09:00;102116.78;;;14.79;61.99
48517;BME280;34310;51.904;4.256;2022-12-05T09:11:32;102116.44;;;14.75;62.23
48517;BME280;34310;51.904;4.256;2022-12-05T09:14:01;102125.69;;;14.71;62.37
48517;BME280;34310;51.904;4.256;2022-12-05T09:16:31;102123.75;;;14.69;62.33
48517;BME280;34310;51.904;4.256;2022-12-05T09:19:15;102126.25;;;14.67;62.38
48517;BME280;34310;51.904;4.256;2022-12-05T09:21:43;102131.22;;;14.64;62.51
48517;BME280;34310;51.904;4.256;2022-12-05T09:24:12;102136.19;;;14.61;62.51
48517;BME280;34310;51.904;4.256;2022-12-05T09:26:40;102131.78;;;14.60;62.48
48517;BME280;34310;51.904;4.256;2022-12-05T09:29:08;102139.38;;;14.57;62.57
48517;BME280;34310;51.904;4.256;2022-12-05T09:31:42;102140.16;;;14.56;62.66
48517;BME280;34310;51.904;4.256;2022-12-05T09:34:10;102139.03;;;14.52;62.78
48517;BME280;34310;51.904;4.256;2022-12-05T09:36:39;102137.00;;;14.48;62.79
48517;BME280;34310;51.904;4.256;2022-12-05T09:39:06;102145.69;;;14.49;62.96
48517;BME280;34310;51.904;4.256;2022-12-05T09:47:37;102156.50;;;14.43;63.03
48517;BME280;34310;51.904;4.256;2022-12-05T09:50:21;102157.00;;;14.39;63.16
48517;BME280;34310;51.904;4.256;2022-12-05T09:55:25;102155.75;;;14.34;63.16
48517;BME280;34310;51.904;4.256;2022-12-05T09:57:58;102148.75;;;14.33;63.36
48517;BME280;34310;51.904;4.256;2022-12-05T10:00:28;102151.91;;;14.29;63.30
48517;BME280;34310;51.904;4.256;2022-12-05T10:08:25;102148.97;;;14.24;63.58
48517;BME280;34310;51.904;4.256;2022-12-05T10:11:02;102149.66;;;14.22;63.65
48517;BME280;34310;51.904;4.256;2022-12-05T10:16:37;102154.84;;;14.22;63.64
48517;BME280;34310;51.904;4.256;2022-12-05T10:19:12;102156.41;;;14.20;63.54
48517;BME280;34310;51.904;4.256;2022-12-05T10:22:00;102155.41;;;14.18;63.66
48517;BME280;34310;51.904;4.256;2022-12-05T10:27:09;102154.53;;;14.41;63.00
48517;BME280;34310;51.904;4.256;2022-12-05T10:29:44;102153.47;;;14.49;62.59
48517;BME280;34310;51.904;4.256;2022-12-05T10:32:24;102153.16;;;14.56;62.49
48517;BME280;34310;51.904;4.256;2022-12-05T10:34:58;102157.91;;;14.62;62.30
48517;BME280;34310;51.904;4.256;2022-12-05T10:37:28;102151.47;;;14.68;62.14
48517;BME280;34310;51.904;4.256;2022-12-05T10:39:57;102145.16;;;14.76;61.92
48517;BME280;34310;51.904;4.256;2022-12-05T10:42:28;102143.91;;;14.83;61.76
48517;BME280;34310;51.904;4.256;2022-12-05T10:44:59;102143.47;;;14.88;61.47
48517;BME280;34310;51.904;4.256;2022-12-05T10:47:29;102143.78;;;14.93;61.63
48517;BME280;34310;51.904;4.256;2022-12-05T10:50:01;102146.63;;;14.96;61.65
48517;BME280;34310;51.904;4.256;2022-12-05T10:52:31;102147.75;;;15.00;61.65
48517;BME280;34310;51.904;4.256;2022-12-05T10:55:03;102147.75;;;15.00;61.44
48517;BME280;34310;51.904;4.256;2022-12-05T10:57:32;102146.16;;;15.02;61.57
48517;BME280;34310;51.904;4.256;2022-12-05T11:00:10;102141.84;;;15.02;61.31
48517;BME280;34310;51.904;4.256;2022-12-05T11:02:39;102149.81;;;15.04;61.45
48517;BME280;34310;51.904;4.256;2022-12-05T11:05:09;102142.13;;;15.05;61.45
48517;BME280;34310;51.904;4.256;2022-12-05T11:10:20;102143.81;;;15.05;61.36
48517;BME280;34310;51.904;4.256;2022-12-05T11:12:54;102135.88;;;15.03;61.51
48517;BME280;34310;51.904;4.256;2022-12-05T11:15:24;102140.41;;;15.06;61.36
48517;BME280;34310;51.904;4.256;2022-12-05T11:17:53;102143.03;;;15.06;61.48
48517;BME280;34310;51.904;4.256;2022-12-05T11:22:50;102141.31;;;15.06;61.51
48517;BME280;34310;51.904;4.256;2022-12-05T11:25:35;102132.63;;;15.06;61.30
48517;BME280;34310;51.904;4.256;2022-12-05T11:28:22;102139.63;;;15.07;61.21
48517;BME280;34310;51.904;4.256;2022-12-05T11:30:59;102140.31;;;15.04;61.35
48517;BME280;34310;51.904;4.256;2022-12-05T11:33:29;102141.22;;;15.05;61.44
48517;BME280;34310;51.904;4.256;2022-12-05T11:36:21;102134.97;;;15.03;61.46
48517;BME280;34310;51.904;4.256;2022-12-05T11:38:49;102136.66;;;15.02;61.62
48517;BME280;34310;51.904;4.256;2022-12-05T11:41:31;102142.66;;;15.01;61.67
48517;BME280;34310;51.904;4.256;2022-12-05T11:46:48;102139.72;;;14.97;61.69
48517;BME280;34310;51.904;4.256;2022-12-05T11:55:23;102142.78;;;14.91;61.76
48517;BME280;34310;51.904;4.256;2022-12-05T12:00:47;102150.34;;;14.88;62.11
48517;BME280;34310;51.904;4.256;2022-12-05T12:15:02;102139.16;;;14.77;62.43
48517;BME280;34310;51.904;4.256;2022-12-05T12:17:54;102141.41;;;14.73;62.41
48517;BME280;34310;51.904;4.256;2022-12-05T12:26:07;102154.97;;;14.69;62.60
48517;BME280;34310;51.904;4.256;2022-12-05T12:29:03;102146.16;;;14.67;62.52
48517;BME280;34310;51.904;4.256;2022-12-05T12:34:28;102139.03;;;14.64;62.62
48517;BME280;34310;51.904;4.256;2022-12-05T12:37:42;102144.09;;;14.63;62.76
48517;BME280;34310;51.904;4.256;2022-12-05T12:40:05;102140.28;;;14.57;62.76
48517;BME280;34310;51.904;4.256;2022-12-05T12:43:11;102139.38;;;14.57;62.77
48517;BME280;34310;51.904;4.256;2022-12-05T12:52:08;102137.66;;;14.46;63.13
48517;BME280;34310;51.904;4.256;2022-12-05T12:54:59;102132.31;;;14.44;63.04
48517;BME280;34310;51.904;4.256;2022-12-05T13:00:33;102140.63;;;14.40;63.29
48517;BME280;34310;51.904;4.256;2022-12-05T13:03:28;102136.00;;;14.36;63.31
48517;BME280;34310;51.904;4.256;2022-12-05T13:06:14;102135.78;;;14.33;63.31
48517;BME280;34310;51.904;4.256;2022-12-05T13:11:29;102139.72;;;14.28;63.46
48517;BME280;34310;51.904;4.256;2022-12-05T13:14:00;102142.19;;;14.26;63.65
48517;BME280;34310;51.904;4.256;2022-12-05T13:16:31;102135.31;;;14.39;63.25
48517;BME280;34310;51.904;4.256;2022-12-05T13:19:02;102137.88;;;14.49;62.92
48517;BME280;34310;51.904;4.256;2022-12-05T13:21:32;102141.06;;;14.56;62.49
48517;BME280;34310;51.904;4.256;2022-12-05T13:23:59;102130.31;;;14.64;62.37
48517;BME280;34310;51.904;4.256;2022-12-05T13:26:31;102134.50;;;14.73;61.99
48517;BME280;34310;51.904;4.256;2022-12-05T13:29:02;102133.41;;;14.81;61.86
48517;BME280;34310;51.904;4.256;2022-12-05T13:31:42;102137.34;;;14.88;61.80
48517;BME280;34310;51.904;4.256;2022-12-05T13:37:18;102119.72;;;14.96;61.61
48517;BME280;34310;51.904;4.256;2022-12-05T13:40:05;102125.94;;;14.98;61.75
48517;BME280;34310;51.904;4.256;2022-12-05T13:43:00;102128.75;;;15.01;61.64
48517;BME280;34310;51.904;4.256;2022-12-05T13:45:28;102127.84;;;15.00;61.66
48517;BME280;34310;51.904;4.256;2022-12-05T13:50:49;102129.75;;;15.03;61.69
48517;BME280;34310;51.904;4.256;2022-12-05T13:53:25;102134.19;;;15.04;61.58
48517;BME280;34310;51.904;4.256;2022-12-05T14:03:56;102128.84;;;15.02;61.62
48517;BME280;34310;51.904;4.256;2022-12-05T14:09:28;102121.97;;;15.03;61.45
48517;BME280;34310;51.904;4.256;2022-12-05T14:14:58;102132.25;;;15.01;61.42
48517;BME280;34310;51.904;4.256;2022-12-05T14:17:43;102128.75;;;15.01;61.53
48517;BME280;34310;51.904;4.256;2022-12-05T14:20:22;102127.84;;;15.00;61.68
48517;BME280;34310;51.904;4.256;2022-12-05T14:23:08;102133.94;;;15.01;61.65
48517;BME280;34310;51.904;4.256;2022-12-05T14:28:37;102136.44;;;14.99;61.67
48517;BME280;34310;51.904;4.256;2022-12-05T14:31:48;102139.94;;;15.00;61.77
48517;BME280;34310;51.904;4.256;2022-12-05T14:34:25;102137.13;;;14.97;61.83
48517;BME280;34310;51.904;4.256;2022-12-05T14:37:02;102132.72;;;14.96;61.88
48517;BME280;34310;51.904;4.256;2022-12-05T14:39:41;102135.31;;;14.96;61.77
48517;BME280;34310;51.904;4.256;2022-12-05T14:42:39;102136.78;;;14.92;62.02
48517;BME280;34310;51.904;4.256;2022-12-05T14:45:24;102138.47;;;14.92;62.00
48517;BME280;34310;51.904;4.256;2022-12-05T14:47:56;102146.28;;;14.92;61.89
48517;BME280;34310;51.904;4.256;2022-12-05T14:50:43;102148.66;;;14.88;62.08
48517;BME280;34310;51.904;4.256;2022-12-05T14:53:21;102150.25;;;14.86;62.07
48517;BME280;34310;51.904;4.256;2022-12-05T14:56:19;102152.72;;;14.85;62.21
48517;BME280;34310;51.904;4.256;2022-12-05T14:58:58;102151.72;;;14.83;62.34
48517;BME280;34310;51.904;4.256;2022-12-05T15:01:46;102155.00;;;14.80;62.25
48517;BME280;34310;51.904;4.256;2022-12-05T15:09:48;102162.97;;;14.72;62.45
48517;BME280;34310;51.904;4.256;2022-12-05T15:15:36;102157.22;;;14.64;62.66
48517;BME280;34310;51.904;4.256;2022-12-05T15:18:45;102165.47;;;14.59;62.79
48517;BME280;34310;51.904;4.256;2022-12-05T15:24:05;102167.84;;;14.55;62.79
48517;BME280;34310;51.904;4.256;2022-12-05T15:31:57;102171.44;;;14.46;63.10
48517;BME280;34310;51.904;4.256;2022-12-05T15:42:26;102182.06;;;14.49;63.00
48517;BME280;34310;51.904;4.256;2022-12-05T15:50:14;102178.59;;;14.72;62.32
48517;BME280;34310;51.904;4.256;2022-12-05T15:55:37;102182.25;;;14.85;61.88
48517;BME280;34310;51.904;4.256;2022-12-05T16:01:05;102183.13;;;14.98;61.69